Kimball, Minnesota
Current Conditions -  °F | °C
As of 5:53 PM on Friday 26 Dec 2014 (Local Time) from KLJF Reporting Station
Overcast Overcast  
Wind Chill: 20°   Ceiling: 1800
Heat Index: 28°   Visibility: 10mi
Dew Point: 25°   Wind: 9mph
Humidity: 86%   Direction: 360°N
Pressure: 30.08"   Gusts: NA
Location:  45.31°N, 94.3°W
Report Text: KLJF 262353Z AUTO 36008KT 10SM OVC018 M02/M04 A3008 RMK AO2
Loading
Personal Weather Stations






























Interactive Weather Map New forecast layout! Learn more

10-Day Weather Forecast

Advertisements
Track Severe Weather on mobile